createdAt,value
2023-03-18T00:00:16.776Z,5.20
2023-03-18T00:02:43.953Z,5.50
2023-03-18T00:05:12.728Z,5.45
2023-03-18T00:07:40.272Z,5.85
2023-03-18T00:10:10.089Z,5.60
2023-03-18T00:12:38.931Z,5.95
2023-03-18T00:15:08.157Z,6.65
2023-03-18T00:17:35.627Z,5.72
2023-03-18T00:20:06.001Z,5.03
2023-03-18T00:22:34.088Z,5.85
2023-03-18T00:25:01.006Z,5.30
2023-03-18T00:27:28.579Z,6.20
2023-03-18T00:29:56.069Z,5.80
2023-03-18T00:32:23.170Z,5.90
2023-03-18T00:34:50.699Z,5.57
2023-03-18T00:37:30.139Z,5.65
2023-03-18T00:40:04.769Z,5.30
2023-03-18T00:42:38.917Z,6.10
2023-03-18T00:45:08.759Z,6.07
2023-03-18T00:47:38.664Z,5.63
2023-03-18T00:50:08.469Z,5.85
2023-03-18T00:52:36.039Z,6.10
2023-03-18T00:55:02.780Z,5.97
2023-03-18T00:57:30.128Z,6.38
2023-03-18T00:59:59.313Z,6.13
2023-03-18T01:02:27.569Z,6.30
2023-03-18T01:04:54.304Z,5.95
2023-03-18T01:07:20.922Z,5.55
2023-03-18T01:09:48.173Z,6.28
2023-03-18T01:12:15.207Z,6.05
2023-03-18T01:14:43.148Z,5.93
2023-03-18T01:17:10.764Z,6.40
2023-03-18T01:19:37.952Z,5.80
2023-03-18T01:22:04.855Z,6.18
2023-03-18T01:24:31.517Z,6.45
2023-03-18T01:26:58.357Z,6.13
2023-03-18T01:29:25.294Z,6.15
2023-03-18T01:31:52.194Z,6.15
2023-03-18T01:34:19.275Z,6.30
2023-03-18T01:36:46.487Z,5.63
2023-03-18T01:39:13.248Z,6.35
2023-03-18T01:41:40.313Z,6.03
2023-03-18T01:44:15.301Z,6.18
2023-03-18T01:46:45.027Z,6.13
2023-03-18T01:49:16.482Z,6.38
2023-03-18T01:51:47.426Z,5.90
2023-03-18T01:54:15.511Z,5.78
2023-03-18T01:56:44.618Z,6.47
2023-03-18T01:59:12.964Z,5.75
2023-03-18T02:01:48.053Z,5.72
2023-03-18T02:04:18.393Z,6.07
2023-03-18T02:06:45.632Z,5.82
2023-03-18T02:09:13.129Z,6.18
2023-03-18T02:11:43.750Z,5.97
2023-03-18T02:14:14.849Z,6.30
2023-03-18T02:16:50.340Z,6.80
2023-03-18T02:19:26.575Z,6.23
2023-03-18T02:22:08.957Z,5.75
2023-03-18T02:24:53.252Z,5.80
2023-03-18T02:27:25.724Z,6.43
2023-03-18T02:29:57.936Z,5.32
2023-03-18T02:32:30.803Z,6.20
2023-03-18T02:35:01.492Z,6.13
2023-03-18T02:37:28.193Z,6.13
2023-03-18T02:39:54.876Z,6.40
2023-03-18T02:42:36.740Z,5.47
2023-03-18T02:45:03.768Z,6.10
2023-03-18T02:47:31.654Z,5.45
2023-03-18T02:49:59.492Z,6.75
2023-03-18T02:52:26.639Z,5.50
2023-03-18T02:54:55.168Z,6.03
2023-03-18T02:57:21.812Z,5.28
2023-03-18T02:59:48.437Z,5.78
2023-03-18T03:02:15.103Z,6.03
2023-03-18T03:04:43.363Z,6.30
2023-03-18T03:07:10.199Z,5.72
2023-03-18T03:09:36.834Z,5.90
2023-03-18T03:12:03.643Z,5.75
2023-03-18T03:14:30.292Z,5.57
2023-03-18T03:16:57.963Z,5.72
2023-03-18T03:19:24.584Z,5.50
2023-03-18T03:21:51.313Z,5.60
2023-03-18T03:24:18.022Z,6.18
2023-03-18T03:26:44.728Z,6.80
2023-03-18T03:29:12.933Z,5.97
2023-03-18T03:31:39.554Z,6.50
2023-03-18T03:34:07.069Z,6.28
2023-03-18T03:36:33.725Z,6.22
2023-03-18T03:39:00.457Z,5.90
2023-03-18T03:41:27.547Z,6.30
2023-03-18T03:43:54.228Z,6.43
2023-03-18T03:46:20.954Z,5.65
2023-03-18T03:48:48.107Z,5.90
2023-03-18T03:51:15.857Z,6.35
2023-03-18T03:53:43.815Z,6.78
2023-03-18T03:56:11.516Z,7.10
2023-03-18T03:58:38.201Z,6.63
2023-03-18T04:01:06.454Z,6.93
2023-03-18T04:03:33.972Z,7.90
2023-03-18T04:06:00.682Z,7.70
2023-03-18T04:08:27.529Z,8.55
2023-03-18T04:10:54.527Z,8.50
2023-03-18T04:13:21.155Z,8.75
2023-03-18T04:15:48.040Z,8.95
2023-03-18T04:18:14.888Z,8.88
2023-03-18T04:20:41.609Z,8.68
2023-03-18T04:23:09.614Z,9.35
2023-03-18T04:25:36.375Z,8.30
2023-03-18T04:28:03.263Z,9.10
2023-03-18T04:30:30.871Z,9.25
2023-03-18T04:32:57.899Z,9.23
2023-03-18T04:35:24.580Z,8.93
2023-03-18T04:37:51.413Z,8.82
2023-03-18T04:40:18.435Z,9.13
2023-03-18T04:42:47.763Z,9.60
2023-03-18T04:45:16.171Z,8.82
2023-03-18T04:47:47.101Z,9.75
2023-03-18T04:50:14.564Z,9.55
2023-03-18T04:52:42.076Z,8.60
2023-03-18T04:55:09.667Z,8.88
2023-03-18T04:57:38.449Z,8.90
2023-03-18T05:00:10.364Z,9.00
2023-03-18T05:02:39.517Z,8.60
2023-03-18T05:05:06.704Z,8.20
2023-03-18T05:07:33.586Z,9.07
2023-03-18T05:10:00.214Z,8.70
2023-03-18T05:12:27.186Z,9.32
2023-03-18T05:14:53.851Z,8.45
2023-03-18T05:17:21.502Z,9.30
2023-03-18T05:19:49.111Z,8.75
2023-03-18T05:22:18.355Z,9.35
2023-03-18T05:24:46.200Z,8.45
2023-03-18T05:27:15.984Z,8.50
2023-03-18T05:29:43.109Z,10.20
2023-03-18T05:32:10.383Z,8.98
2023-03-18T05:34:39.673Z,10.48
2023-03-18T05:37:08.271Z,9.70
2023-03-18T05:39:35.200Z,8.90
2023-03-18T05:42:02.331Z,9.00
2023-03-18T05:44:29.500Z,9.90
2023-03-18T05:46:56.771Z,9.57
2023-03-18T05:49:23.779Z,9.50
2023-03-18T05:51:52.660Z,9.55
2023-03-18T05:54:21.099Z,10.57
2023-03-18T05:56:47.735Z,10.30
2023-03-18T05:59:15.351Z,9.93
2023-03-18T06:01:42.191Z,9.63
2023-03-18T06:04:12.053Z,8.93
2023-03-18T06:06:40.649Z,9.18
2023-03-18T06:09:08.734Z,9.02
2023-03-18T06:11:35.712Z,9.88
2023-03-18T06:14:04.669Z,9.88
2023-03-18T06:16:32.853Z,9.98
2023-03-18T06:18:59.899Z,9.95
2023-03-18T06:21:27.204Z,9.73
2023-03-18T06:23:54.404Z,9.80
2023-03-18T06:26:22.036Z,10.52
2023-03-18T06:28:48.764Z,10.80
2023-03-18T06:31:15.532Z,10.18
2023-03-18T06:33:42.233Z,9.90
2023-03-18T06:36:10.680Z,10.45
2023-03-18T06:38:38.139Z,11.48
2023-03-18T06:41:04.982Z,10.40
2023-03-18T06:43:31.852Z,9.95
2023-03-18T06:45:59.519Z,11.02
2023-03-18T06:48:26.459Z,10.55
2023-03-18T06:50:54.411Z,10.73
2023-03-18T06:53:21.941Z,11.25
2023-03-18T06:55:49.571Z,11.02
2023-03-18T06:58:17.438Z,9.82
2023-03-18T07:00:45.448Z,11.60
2023-03-18T07:03:13.406Z,10.73
2023-03-18T07:05:39.992Z,10.65
2023-03-18T07:08:06.864Z,8.55
2023-03-18T07:10:34.816Z,9.07
2023-03-18T07:13:01.777Z,9.10
2023-03-18T07:15:28.758Z,8.18
2023-03-18T07:17:55.412Z,7.95
2023-03-18T07:20:23.646Z,7.05
2023-03-18T07:22:51.514Z,8.07
2023-03-18T07:25:18.315Z,7.60
2023-03-18T07:27:45.648Z,6.90
2023-03-18T07:30:13.690Z,6.97
2023-03-18T07:32:40.407Z,7.65
2023-03-18T07:35:07.989Z,7.43
2023-03-18T07:37:35.973Z,7.32
2023-03-18T07:40:02.737Z,7.28
2023-03-18T07:42:29.423Z,7.60
2023-03-18T07:44:56.285Z,5.57
2023-03-18T07:47:25.015Z,5.72
2023-03-18T07:49:52.832Z,5.82
2023-03-18T07:52:19.598Z,5.75
2023-03-18T07:54:46.215Z,6.10
2023-03-18T07:57:13.090Z,5.93
2023-03-18T07:59:40.041Z,5.93
2023-03-18T08:02:08.728Z,5.72
2023-03-18T08:04:35.634Z,5.82
2023-03-18T08:07:03.196Z,6.10
2023-03-18T08:09:29.810Z,6.57
2023-03-18T08:11:56.487Z,5.82
2023-03-18T08:14:23.166Z,5.93
2023-03-18T08:16:49.959Z,5.25
2023-03-18T08:19:16.673Z,5.95
2023-03-18T08:21:43.655Z,5.25
2023-03-18T08:24:10.956Z,6.18
2023-03-18T08:26:38.027Z,5.75
2023-03-18T08:29:04.656Z,5.80
2023-03-18T08:31:31.538Z,5.20
2023-03-18T08:33:59.504Z,6.45
2023-03-18T08:36:27.286Z,5.82
2023-03-18T08:38:54.006Z,5.88
2023-03-18T08:41:20.801Z,5.82
2023-03-18T08:43:47.522Z,5.57
2023-03-18T08:46:14.733Z,6.13
2023-03-18T08:48:44.651Z,6.45
2023-03-18T08:51:11.311Z,5.35
2023-03-18T08:53:37.991Z,6.15
2023-03-18T08:56:07.700Z,6.63
2023-03-18T08:58:34.953Z,6.28
2023-03-18T09:01:03.632Z,6.13
2023-03-18T09:03:30.495Z,6.28
2023-03-18T09:05:57.653Z,6.47
2023-03-18T09:08:24.418Z,6.70
2023-03-18T09:10:53.767Z,6.93
2023-03-18T09:13:21.466Z,6.78
2023-03-18T09:15:48.673Z,6.43
2023-03-18T09:18:18.290Z,6.53
2023-03-18T09:20:45.803Z,6.38
2023-03-18T09:23:14.142Z,6.97
2023-03-18T09:25:42.735Z,6.68
2023-03-18T09:28:09.504Z,6.50
2023-03-18T09:30:36.798Z,6.40
2023-03-18T09:33:06.200Z,6.68
2023-03-18T09:35:34.436Z,6.88
2023-03-18T09:38:01.459Z,7.07
2023-03-18T09:40:33.582Z,7.50
2023-03-18T09:43:16.464Z,7.47
2023-03-18T09:45:47.101Z,7.53
2023-03-18T09:48:39.848Z,7.72
2023-03-18T09:51:21.822Z,7.40
2023-03-18T09:54:01.539Z,6.75
2023-03-18T09:56:32.446Z,6.68
2023-03-18T09:59:16.007Z,7.80
2023-03-18T10:01:46.116Z,6.95
2023-03-18T10:04:20.719Z,7.45
2023-03-18T10:06:52.391Z,8.60
2023-03-18T10:09:22.223Z,7.90
2023-03-18T10:11:51.572Z,9.00
2023-03-18T10:14:21.208Z,7.72
2023-03-18T10:16:53.453Z,7.75
2023-03-18T10:19:20.102Z,8.07
2023-03-18T10:21:54.604Z,7.35
2023-03-18T10:24:23.293Z,7.55
2023-03-18T10:27:02.066Z,9.30
2023-03-18T10:29:38.558Z,8.85
2023-03-18T10:32:16.458Z,8.95
2023-03-18T10:35:04.015Z,8.95
2023-03-18T10:38:01.361Z,8.98
2023-03-18T10:42:56.962Z,8.68
2023-03-18T10:45:24.106Z,8.43
2023-03-18T10:47:59.263Z,8.70
2023-03-18T10:50:34.111Z,9.10
2023-03-18T10:53:12.015Z,8.10
2023-03-18T10:55:50.943Z,8.93
2023-03-18T10:58:19.598Z,9.20
2023-03-18T11:00:46.355Z,9.23
2023-03-18T11:03:29.386Z,7.95
2023-03-18T11:05:59.676Z,8.63
2023-03-18T11:08:34.304Z,8.70
2023-03-18T11:11:17.596Z,8.98
2023-03-18T11:13:46.910Z,8.70
2023-03-18T11:16:26.060Z,9.50
2023-03-18T11:18:52.999Z,8.50
2023-03-18T11:21:20.546Z,9.82
2023-03-18T11:24:07.538Z,8.40
2023-03-18T11:26:47.050Z,9.52
2023-03-18T11:29:18.646Z,8.77
2023-03-18T11:31:49.920Z,8.98
2023-03-18T11:34:19.742Z,10.25
2023-03-18T11:36:55.639Z,9.48
2023-03-18T11:39:25.113Z,9.52
2023-03-18T11:41:52.970Z,9.90
2023-03-18T11:44:26.098Z,9.90
2023-03-18T11:47:10.910Z,10.20
2023-03-18T11:49:37.984Z,9.65
2023-03-18T11:52:06.648Z,10.10
2023-03-18T11:55:09.542Z,9.77
2023-03-18T11:57:56.062Z,10.07
2023-03-18T12:00:39.289Z,10.35
2023-03-18T12:03:19.863Z,9.55
2023-03-18T12:05:56.986Z,10.98
2023-03-18T12:08:39.014Z,10.80
2023-03-18T12:11:07.730Z,10.90
2023-03-18T12:13:55.567Z,10.80
2023-03-18T12:16:45.124Z,10.85
2023-03-18T12:19:19.898Z,11.35
2023-03-18T12:22:01.816Z,10.82
2023-03-18T12:24:58.791Z,10.68
2023-03-18T12:27:42.844Z,11.38
2023-03-18T12:30:44.770Z,11.00
2023-03-18T12:33:27.043Z,11.23
2023-03-18T12:36:14.590Z,11.05
2023-03-18T12:38:51.620Z,10.98
2023-03-18T12:41:40.951Z,11.93
2023-03-18T12:44:35.178Z,11.68
2023-03-18T12:47:18.225Z,11.90
2023-03-18T12:49:52.602Z,12.05
2023-03-18T12:52:43.566Z,13.40
2023-03-18T12:55:21.699Z,11.68
2023-03-18T12:57:56.598Z,12.93
2023-03-18T13:00:30.382Z,12.27
2023-03-18T13:03:13.553Z,12.10
2023-03-18T13:05:42.810Z,11.15
2023-03-18T13:08:21.159Z,12.23
2023-03-18T13:11:00.764Z,12.88
2023-03-18T13:13:30.405Z,13.65
2023-03-18T13:15:57.246Z,13.65
2023-03-18T13:18:43.856Z,13.63
2023-03-18T13:21:16.033Z,12.63
2023-03-18T13:23:57.895Z,13.75
2023-03-18T13:26:31.787Z,14.18
2023-03-18T13:29:16.603Z,13.65
2023-03-18T13:31:58.899Z,14.00
2023-03-18T13:34:45.498Z,14.05
2023-03-18T13:37:27.560Z,12.48
2023-03-18T13:40:14.097Z,13.50
2023-03-18T13:42:41.915Z,13.55
2023-03-18T13:45:23.186Z,13.60
2023-03-18T13:48:01.463Z,13.10
2023-03-18T13:50:32.380Z,13.00
2023-03-18T13:53:01.667Z,12.07
2023-03-18T13:55:48.022Z,12.93
2023-03-18T13:58:26.016Z,12.43
2023-03-18T14:01:15.476Z,11.43
2023-03-18T14:03:42.380Z,12.23
2023-03-18T14:06:22.574Z,12.73
2023-03-18T14:08:51.775Z,12.27
2023-03-18T14:11:23.090Z,11.73
2023-03-18T14:13:51.796Z,12.98
2023-03-18T14:16:23.392Z,12.75
2023-03-18T14:19:13.351Z,13.23
2023-03-18T14:21:53.498Z,12.98
2023-03-18T14:24:21.692Z,13.63
2023-03-18T14:27:04.419Z,12.45
2023-03-18T14:29:47.456Z,11.90
2023-03-18T14:32:36.433Z,11.88
2023-03-18T14:35:18.528Z,11.57
2023-03-18T14:38:16.056Z,11.57
2023-03-18T14:40:46.488Z,12.07
2023-03-18T14:43:24.169Z,12.35
2023-03-18T14:45:53.523Z,11.82
2023-03-18T14:48:21.610Z,12.13
2023-03-18T14:50:52.002Z,10.65
2023-03-18T14:53:22.849Z,11.00
2023-03-18T14:55:51.509Z,11.52
2023-03-18T14:58:20.619Z,11.93
2023-03-18T15:00:51.656Z,11.13
2023-03-18T15:03:24.958Z,11.50
2023-03-18T15:05:58.045Z,11.93
2023-03-18T15:08:37.505Z,11.82
2023-03-18T15:16:13.616Z,12.15
2023-03-18T15:18:40.627Z,11.70
2023-03-18T15:21:17.860Z,12.60
2023-03-18T15:23:51.169Z,12.45
2023-03-18T15:26:23.583Z,13.15
2023-03-18T15:28:56.492Z,13.15
2023-03-18T15:31:29.896Z,12.93
2023-03-18T15:34:06.145Z,13.02
2023-03-18T15:39:33.464Z,13.57
2023-03-18T15:42:01.870Z,12.73
2023-03-18T15:44:32.399Z,14.13
2023-03-18T15:47:13.815Z,11.60
2023-03-18T15:49:51.617Z,12.82
2023-03-18T15:52:21.026Z,13.80
2023-03-18T15:54:48.194Z,12.98
2023-03-18T15:57:28.123Z,13.20
2023-03-18T15:59:54.818Z,12.98
2023-03-18T16:02:22.640Z,12.60
2023-03-18T16:04:49.362Z,13.13
2023-03-18T16:07:19.161Z,12.40
2023-03-18T16:09:45.864Z,12.15
2023-03-18T16:12:19.347Z,12.52
2023-03-18T16:14:48.327Z,12.18
2023-03-18T16:17:19.652Z,12.20
2023-03-18T16:19:48.696Z,12.02
2023-03-18T16:22:15.508Z,13.07
2023-03-18T16:24:45.777Z,13.50
2023-03-18T16:27:30.698Z,13.80
2023-03-18T16:29:57.408Z,13.00
2023-03-18T16:32:24.315Z,13.63
2023-03-18T16:34:51.132Z,13.32
2023-03-18T16:37:25.040Z,13.50
2023-03-18T16:39:54.543Z,13.40
2023-03-18T16:42:24.048Z,13.90
2023-03-18T16:44:51.924Z,12.45
2023-03-18T16:47:22.669Z,13.80
2023-03-18T16:49:49.761Z,13.35
2023-03-18T16:52:19.724Z,13.60
2023-03-18T16:54:46.323Z,13.48
2023-03-18T16:57:18.863Z,13.32
2023-03-18T16:59:51.098Z,12.05
2023-03-18T17:02:34.303Z,12.57
2023-03-18T17:05:01.828Z,12.75
2023-03-18T17:07:29.596Z,12.30
2023-03-18T17:09:56.711Z,12.25
2023-03-18T17:12:24.728Z,12.82
2023-03-18T17:14:55.368Z,13.70
2023-03-18T17:17:22.997Z,13.35
2023-03-18T17:19:49.593Z,13.00
2023-03-18T17:22:25.909Z,12.73
2023-03-18T17:24:52.621Z,13.50
2023-03-18T17:27:23.760Z,14.73
2023-03-18T17:29:50.485Z,12.88
2023-03-18T17:32:19.410Z,13.10
2023-03-18T17:34:48.320Z,12.95
2023-03-18T17:37:15.093Z,12.88
2023-03-18T17:39:42.059Z,13.50
2023-03-18T17:42:26.630Z,12.63
2023-03-18T17:44:53.291Z,12.57
2023-03-18T17:47:19.949Z,11.82
2023-03-18T17:49:46.638Z,12.27
2023-03-18T17:52:20.870Z,12.43
2023-03-18T17:54:48.088Z,12.57
2023-03-18T17:57:16.346Z,15.77
2023-03-18T17:59:43.311Z,15.50
2023-03-18T18:02:17.757Z,14.35
2023-03-18T18:04:45.060Z,13.55
2023-03-18T18:07:21.644Z,13.75
2023-03-18T18:09:49.745Z,12.82
2023-03-18T18:12:23.299Z,12.77
2023-03-18T18:14:50.081Z,11.80
2023-03-18T18:17:17.563Z,11.05
2023-03-18T18:19:44.610Z,11.65
2023-03-18T18:22:19.176Z,11.90
2023-03-18T18:24:47.102Z,12.05
2023-03-18T18:27:15.072Z,11.73
2023-03-18T18:29:49.401Z,11.20
2023-03-18T18:32:16.372Z,11.10
2023-03-18T18:34:43.059Z,11.60
2023-03-18T18:37:09.821Z,10.63
2023-03-18T18:39:36.483Z,11.73
2023-03-18T18:42:04.272Z,11.95
2023-03-18T18:44:31.782Z,11.43
2023-03-18T18:46:58.884Z,11.20
2023-03-18T18:49:25.959Z,12.13
2023-03-18T18:51:54.824Z,12.30
2023-03-18T18:54:23.011Z,12.38
2023-03-18T18:56:50.383Z,13.13
2023-03-18T18:59:28.755Z,12.35
2023-03-18T19:01:56.157Z,12.73
2023-03-18T19:04:23.901Z,12.93
2023-03-18T19:06:52.574Z,13.15
2023-03-18T19:09:23.900Z,12.50
2023-03-18T19:11:51.735Z,12.40
2023-03-18T19:14:27.391Z,12.02
2023-03-18T19:16:57.448Z,13.38
2023-03-18T19:19:27.334Z,13.95
2023-03-18T19:21:54.128Z,12.68
2023-03-18T19:24:26.784Z,13.15
2023-03-18T19:26:55.451Z,11.98
2023-03-18T19:29:22.535Z,12.55
2023-03-18T19:31:49.737Z,12.50
2023-03-18T19:34:18.238Z,12.55
2023-03-18T19:36:48.772Z,12.20
2023-03-18T19:39:17.672Z,11.98
2023-03-18T19:41:47.054Z,12.18
2023-03-18T19:44:18.330Z,11.73
2023-03-18T19:46:47.421Z,11.85
2023-03-18T19:49:37.055Z,11.88
2023-03-18T19:52:22.007Z,11.77
2023-03-18T19:54:49.843Z,12.45
2023-03-18T19:57:20.836Z,12.27
2023-03-18T19:59:49.179Z,12.18
2023-03-18T20:02:19.933Z,11.98
2023-03-18T20:04:47.880Z,11.68
2023-03-18T20:07:14.734Z,11.70
2023-03-18T20:09:42.607Z,11.13
2023-03-18T20:12:21.680Z,13.13
2023-03-18T20:14:49.132Z,12.43
2023-03-18T20:17:31.060Z,13.18
2023-03-18T20:19:57.906Z,11.43
2023-03-18T20:22:29.015Z,12.52
2023-03-18T20:24:56.137Z,11.13
2023-03-18T20:27:23.171Z,11.85
2023-03-18T20:29:49.940Z,12.02
2023-03-18T20:32:16.790Z,12.13
2023-03-18T20:34:44.000Z,11.88
2023-03-18T20:37:32.048Z,12.90
2023-03-18T20:39:58.843Z,11.07
2023-03-18T20:42:25.995Z,10.00
2023-03-18T20:44:52.722Z,10.80
2023-03-18T20:47:19.352Z,11.13
2023-03-18T20:49:46.474Z,11.30
2023-03-18T20:52:32.708Z,11.43
2023-03-18T20:54:59.354Z,11.02
2023-03-18T20:57:34.406Z,11.13
2023-03-18T21:00:01.062Z,12.23
2023-03-18T21:02:31.055Z,11.80
2023-03-18T21:04:58.931Z,11.63
2023-03-18T21:07:26.700Z,12.18
2023-03-18T21:09:53.713Z,12.13
2023-03-18T21:12:22.013Z,12.07
2023-03-18T21:14:49.733Z,11.80
2023-03-18T21:17:22.596Z,12.63
2023-03-18T21:19:50.738Z,13.45
2023-03-18T21:22:21.701Z,12.73
2023-03-18T21:24:48.964Z,10.82
2023-03-18T21:27:22.365Z,11.05
2023-03-18T21:29:51.189Z,11.70
2023-03-18T21:32:29.791Z,11.88
2023-03-18T21:34:56.834Z,11.98
2023-03-18T21:37:25.565Z,11.23
2023-03-18T21:39:53.165Z,11.48
2023-03-18T21:42:24.253Z,11.77
2023-03-18T21:44:51.750Z,11.00
2023-03-18T21:47:20.927Z,10.98
2023-03-18T21:49:48.972Z,10.57
2023-03-18T21:52:26.389Z,10.18
2023-03-18T21:54:53.287Z,10.23
2023-03-18T21:57:22.090Z,10.15
2023-03-18T21:59:50.075Z,10.20
2023-03-18T22:02:32.486Z,9.65
2023-03-18T22:05:01.593Z,9.57
2023-03-18T22:07:31.770Z,10.15
2023-03-18T22:10:00.643Z,9.75
2023-03-18T22:12:30.340Z,10.23
2023-03-18T22:14:58.119Z,9.25
2023-03-18T22:17:30.807Z,10.73
2023-03-18T22:19:59.090Z,10.38
2023-03-18T22:22:33.448Z,11.20
2023-03-18T22:25:00.650Z,9.82
2023-03-18T22:27:29.262Z,10.00
2023-03-18T22:29:58.419Z,10.23
2023-03-18T22:32:40.832Z,9.63
2023-03-18T22:35:17.646Z,9.85
2023-03-18T22:37:45.399Z,9.80
2023-03-18T22:40:19.170Z,9.73
2023-03-18T22:42:48.188Z,9.55
2023-03-18T22:45:32.336Z,10.20
2023-03-18T22:48:01.925Z,10.70
2023-03-18T22:50:31.738Z,9.80
2023-03-18T22:53:02.493Z,9.80
2023-03-18T22:55:34.930Z,10.02
2023-03-18T22:58:02.000Z,10.10
2023-03-18T23:00:44.855Z,9.15
2023-03-18T23:03:19.173Z,9.02
2023-03-18T23:05:47.153Z,9.30
2023-03-18T23:08:14.755Z,9.50
2023-03-18T23:10:42.772Z,10.55
2023-03-18T23:13:23.600Z,9.85
2023-03-18T23:15:50.274Z,10.65
2023-03-18T23:18:18.597Z,10.05
2023-03-18T23:20:48.287Z,9.90
2023-03-18T23:23:16.733Z,10.10
2023-03-18T23:25:45.399Z,10.13
2023-03-18T23:28:12.714Z,10.40
2023-03-18T23:30:42.024Z,11.00
2023-03-18T23:33:09.968Z,11.52
2023-03-18T23:35:38.149Z,11.65
2023-03-18T23:38:06.574Z,12.82
2023-03-18T23:40:34.005Z,11.57
2023-03-18T23:43:00.776Z,12.00
2023-03-18T23:45:28.104Z,12.13
2023-03-18T23:47:56.610Z,11.93
2023-03-18T23:50:24.000Z,11.43
2023-03-18T23:52:50.901Z,12.13
2023-03-18T23:55:33.643Z,12.02
2023-03-18T23:58:01.355Z,13.07
